sensor_id;sensor_type;location;lat;lon;timestamp;P1;durP1;ratioP1;P2;durP2;ratioP2
2177;SDS011;1095;50.992;6.798;2024-02-14T00:01:16;8.75;;;2.85;;
2177;SDS011;1095;50.992;6.798;2024-02-14T00:03:43;6.53;;;3.03;;
2177;SDS011;1095;50.992;6.798;2024-02-14T00:06:12;4.72;;;3.13;;
2177;SDS011;1095;50.992;6.798;2024-02-14T00:08:40;6.57;;;2.80;;
2177;SDS011;1095;50.992;6.798;2024-02-14T00:11:07;5.47;;;3.30;;
2177;SDS011;1095;50.992;6.798;2024-02-14T00:13:33;5.03;;;2.90;;
2177;SDS011;1095;50.992;6.798;2024-02-14T00:16:01;4.07;;;2.88;;
2177;SDS011;1095;50.992;6.798;2024-02-14T00:18:27;4.32;;;3.03;;
2177;SDS011;1095;50.992;6.798;2024-02-14T00:20:55;6.40;;;3.00;;
2177;SDS011;1095;50.992;6.798;2024-02-14T00:23:22;4.55;;;2.88;;
2177;SDS011;1095;50.992;6.798;2024-02-14T00:25:52;5.32;;;2.92;;
2177;SDS011;1095;50.992;6.798;2024-02-14T00:28:25;5.35;;;3.00;;
2177;SDS011;1095;50.992;6.798;2024-02-14T00:30:51;4.82;;;3.38;;
2177;SDS011;1095;50.992;6.798;2024-02-14T00:33:20;5.22;;;3.35;;
2177;SDS011;1095;50.992;6.798;2024-02-14T00:35:51;3.25;;;2.55;;
2177;SDS011;1095;50.992;6.798;2024-02-14T00:38:26;4.15;;;2.85;;
2177;SDS011;1095;50.992;6.798;2024-02-14T00:40:54;5.15;;;2.58;;
2177;SDS011;1095;50.992;6.798;2024-02-14T00:43:21;4.18;;;2.80;;
2177;SDS011;1095;50.992;6.798;2024-02-14T00:45:47;4.55;;;2.97;;
2177;SDS011;1095;50.992;6.798;2024-02-14T00:48:14;4.22;;;2.92;;
2177;SDS011;1095;50.992;6.798;2024-02-14T00:54:02;3.92;;;2.55;;
2177;SDS011;1095;50.992;6.798;2024-02-14T00:56:53;3.73;;;2.43;;
2177;SDS011;1095;50.992;6.798;2024-02-14T00:59:20;5.32;;;2.63;;
2177;SDS011;1095;50.992;6.798;2024-02-14T01:02:01;4.43;;;2.88;;
2177;SDS011;1095;50.992;6.798;2024-02-14T01:04:52;3.75;;;2.60;;
2177;SDS011;1095;50.992;6.798;2024-02-14T01:07:20;3.50;;;2.80;;
2177;SDS011;1095;50.992;6.798;2024-02-14T01:09:51;4.65;;;2.45;;
2177;SDS011;1095;50.992;6.798;2024-02-14T01:12:33;3.40;;;2.42;;
2177;SDS011;1095;50.992;6.798;2024-02-14T01:15:08;3.97;;;2.33;;
2177;SDS011;1095;50.992;6.798;2024-02-14T01:17:41;4.60;;;2.45;;
2177;SDS011;1095;50.992;6.798;2024-02-14T01:20:11;6.07;;;3.08;;
2177;SDS011;1095;50.992;6.798;2024-02-14T01:22:41;4.40;;;2.40;;
2177;SDS011;1095;50.992;6.798;2024-02-14T01:25:08;3.28;;;2.50;;
2177;SDS011;1095;50.992;6.798;2024-02-14T01:27:37;4.85;;;2.55;;
2177;SDS011;1095;50.992;6.798;2024-02-14T01:30:04;5.63;;;2.72;;
2177;SDS011;1095;50.992;6.798;2024-02-14T01:32:31;4.15;;;2.60;;
2177;SDS011;1095;50.992;6.798;2024-02-14T01:34:58;3.38;;;2.47;;
2177;SDS011;1095;50.992;6.798;2024-02-14T01:37:26;3.53;;;2.40;;
2177;SDS011;1095;50.992;6.798;2024-02-14T01:39:54;2.85;;;2.50;;
2177;SDS011;1095;50.992;6.798;2024-02-14T01:42:22;3.72;;;2.53;;
2177;SDS011;1095;50.992;6.798;2024-02-14T01:44:54;4.57;;;2.50;;
2177;SDS011;1095;50.992;6.798;2024-02-14T01:47:27;6.65;;;2.75;;
2177;SDS011;1095;50.992;6.798;2024-02-14T01:50:09;2.70;;;2.10;;
2177;SDS011;1095;50.992;6.798;2024-02-14T01:55:24;4.18;;;2.33;;
2177;SDS011;1095;50.992;6.798;2024-02-14T01:57:57;1.75;;;1.63;;
2177;SDS011;1095;50.992;6.798;2024-02-14T02:00:37;5.03;;;2.53;;
2177;SDS011;1095;50.992;6.798;2024-02-14T02:03:25;3.50;;;2.40;;
2177;SDS011;1095;50.992;6.798;2024-02-14T02:06:04;4.25;;;2.35;;
2177;SDS011;1095;50.992;6.798;2024-02-14T02:08:32;3.75;;;2.30;;
2177;SDS011;1095;50.992;6.798;2024-02-14T02:10:59;2.95;;;2.40;;
2177;SDS011;1095;50.992;6.798;2024-02-14T02:13:26;4.38;;;2.17;;
2177;SDS011;1095;50.992;6.798;2024-02-14T02:15:54;2.35;;;2.05;;
2177;SDS011;1095;50.992;6.798;2024-02-14T02:18:21;3.92;;;1.88;;
2177;SDS011;1095;50.992;6.798;2024-02-14T02:20:53;2.33;;;2.03;;
2177;SDS011;1095;50.992;6.798;2024-02-14T02:23:21;2.25;;;2.05;;
2177;SDS011;1095;50.992;6.798;2024-02-14T02:25:48;1.95;;;1.85;;
2177;SDS011;1095;50.992;6.798;2024-02-14T02:28:15;2.90;;;2.08;;
2177;SDS011;1095;50.992;6.798;2024-02-14T02:30:42;2.38;;;2.17;;
2177;SDS011;1095;50.992;6.798;2024-02-14T02:33:10;2.88;;;2.25;;
2177;SDS011;1095;50.992;6.798;2024-02-14T02:35:37;2.38;;;1.73;;
2177;SDS011;1095;50.992;6.798;2024-02-14T02:38:07;2.50;;;1.90;;
2177;SDS011;1095;50.992;6.798;2024-02-14T02:40:38;3.53;;;1.98;;
2177;SDS011;1095;50.992;6.798;2024-02-14T02:43:04;3.20;;;1.77;;
2177;SDS011;1095;50.992;6.798;2024-02-14T02:45:31;3.05;;;2.50;;
2177;SDS011;1095;50.992;6.798;2024-02-14T02:47:59;2.40;;;1.73;;
2177;SDS011;1095;50.992;6.798;2024-02-14T02:50:27;3.55;;;2.10;;
2177;SDS011;1095;50.992;6.798;2024-02-14T02:52:55;2.47;;;2.10;;
2177;SDS011;1095;50.992;6.798;2024-02-14T02:55:22;2.92;;;1.92;;
2177;SDS011;1095;50.992;6.798;2024-02-14T02:57:50;3.38;;;2.40;;
2177;SDS011;1095;50.992;6.798;2024-02-14T03:00:18;2.58;;;2.17;;
2177;SDS011;1095;50.992;6.798;2024-02-14T03:02:46;3.78;;;2.30;;
2177;SDS011;1095;50.992;6.798;2024-02-14T03:05:15;2.15;;;1.75;;
2177;SDS011;1095;50.992;6.798;2024-02-14T03:07:48;3.63;;;2.10;;
2177;SDS011;1095;50.992;6.798;2024-02-14T03:10:16;2.22;;;2.00;;
2177;SDS011;1095;50.992;6.798;2024-02-14T03:12:46;4.47;;;2.20;;
2177;SDS011;1095;50.992;6.798;2024-02-14T03:15:15;2.90;;;2.13;;
2177;SDS011;1095;50.992;6.798;2024-02-14T03:17:43;3.28;;;2.00;;
2177;SDS011;1095;50.992;6.798;2024-02-14T03:20:10;3.90;;;2.38;;
2177;SDS011;1095;50.992;6.798;2024-02-14T03:22:38;2.05;;;1.63;;
2177;SDS011;1095;50.992;6.798;2024-02-14T03:25:09;2.53;;;2.33;;
2177;SDS011;1095;50.992;6.798;2024-02-14T03:27:38;3.80;;;2.63;;
2177;SDS011;1095;50.992;6.798;2024-02-14T03:30:05;4.18;;;2.30;;
2177;SDS011;1095;50.992;6.798;2024-02-14T03:32:34;2.22;;;1.90;;
2177;SDS011;1095;50.992;6.798;2024-02-14T03:35:01;5.03;;;2.33;;
2177;SDS011;1095;50.992;6.798;2024-02-14T03:37:28;3.63;;;2.22;;
2177;SDS011;1095;50.992;6.798;2024-02-14T03:39:54;2.80;;;2.30;;
2177;SDS011;1095;50.992;6.798;2024-02-14T03:42:21;3.08;;;2.45;;
2177;SDS011;1095;50.992;6.798;2024-02-14T03:44:48;4.28;;;2.42;;
2177;SDS011;1095;50.992;6.798;2024-02-14T03:47:15;3.97;;;2.72;;
2177;SDS011;1095;50.992;6.798;2024-02-14T03:49:43;2.53;;;1.90;;
2177;SDS011;1095;50.992;6.798;2024-02-14T03:52:09;2.58;;;2.30;;
2177;SDS011;1095;50.992;6.798;2024-02-14T03:54:36;2.92;;;2.30;;
2177;SDS011;1095;50.992;6.798;2024-02-14T03:57:03;3.88;;;2.40;;
2177;SDS011;1095;50.992;6.798;2024-02-14T03:59:31;2.38;;;2.08;;
2177;SDS011;1095;50.992;6.798;2024-02-14T04:02:00;3.15;;;2.45;;
2177;SDS011;1095;50.992;6.798;2024-02-14T04:04:27;3.40;;;2.50;;
2177;SDS011;1095;50.992;6.798;2024-02-14T04:06:55;3.28;;;2.38;;
2177;SDS011;1095;50.992;6.798;2024-02-14T04:09:23;2.53;;;2.33;;
2177;SDS011;1095;50.992;6.798;2024-02-14T04:11:53;3.25;;;2.35;;
2177;SDS011;1095;50.992;6.798;2024-02-14T04:14:20;4.75;;;2.20;;
2177;SDS011;1095;50.992;6.798;2024-02-14T04:16:47;3.40;;;2.40;;
2177;SDS011;1095;50.992;6.798;2024-02-14T04:19:14;3.78;;;2.50;;
2177;SDS011;1095;50.992;6.798;2024-02-14T04:21:42;3.28;;;2.47;;
2177;SDS011;1095;50.992;6.798;2024-02-14T04:24:10;3.47;;;2.55;;
2177;SDS011;1095;50.992;6.798;2024-02-14T04:26:37;4.45;;;3.22;;
2177;SDS011;1095;50.992;6.798;2024-02-14T04:29:04;13.45;;;10.07;;
2177;SDS011;1095;50.992;6.798;2024-02-14T04:31:30;5.43;;;4.28;;
2177;SDS011;1095;50.992;6.798;2024-02-14T04:33:57;4.30;;;3.85;;
2177;SDS011;1095;50.992;6.798;2024-02-14T04:36:24;6.80;;;5.95;;
2177;SDS011;1095;50.992;6.798;2024-02-14T04:43:07;7.32;;;5.32;;
2177;SDS011;1095;50.992;6.798;2024-02-14T04:52:34;8.32;;;6.63;;
2177;SDS011;1095;50.992;6.798;2024-02-14T04:55:05;5.25;;;3.72;;
2177;SDS011;1095;50.992;6.798;2024-02-14T04:57:48;6.00;;;4.30;;
2177;SDS011;1095;50.992;6.798;2024-02-14T05:00:27;5.47;;;4.15;;
2177;SDS011;1095;50.992;6.798;2024-02-14T05:03:19;6.05;;;4.43;;
2177;SDS011;1095;50.992;6.798;2024-02-14T05:05:59;9.43;;;4.75;;
2177;SDS011;1095;50.992;6.798;2024-02-14T05:08:35;4.20;;;3.10;;
2177;SDS011;1095;50.992;6.798;2024-02-14T05:11:19;3.05;;;2.63;;
2177;SDS011;1095;50.992;6.798;2024-02-14T05:13:48;5.15;;;3.95;;
2177;SDS011;1095;50.992;6.798;2024-02-14T05:16:17;3.50;;;3.03;;
2177;SDS011;1095;50.992;6.798;2024-02-14T05:18:44;3.58;;;3.15;;
2177;SDS011;1095;50.992;6.798;2024-02-14T05:21:11;3.25;;;2.70;;
2177;SDS011;1095;50.992;6.798;2024-02-14T05:23:38;4.40;;;3.40;;
2177;SDS011;1095;50.992;6.798;2024-02-14T05:26:06;3.72;;;2.47;;
2177;SDS011;1095;50.992;6.798;2024-02-14T05:28:35;2.72;;;2.33;;
2177;SDS011;1095;50.992;6.798;2024-02-14T05:31:03;2.92;;;2.67;;
2177;SDS011;1095;50.992;6.798;2024-02-14T05:34:01;7.20;;;4.32;;
2177;SDS011;1095;50.992;6.798;2024-02-14T05:39:42;4.70;;;3.60;;
2177;SDS011;1095;50.992;6.798;2024-02-14T05:42:18;3.92;;;2.50;;
2177;SDS011;1095;50.992;6.798;2024-02-14T05:48:53;4.55;;;2.65;;
2177;SDS011;1095;50.992;6.798;2024-02-14T05:51:33;3.72;;;2.80;;
2177;SDS011;1095;50.992;6.798;2024-02-14T05:54:44;3.25;;;2.85;;
2177;SDS011;1095;50.992;6.798;2024-02-14T05:57:26;2.75;;;2.47;;
2177;SDS011;1095;50.992;6.798;2024-02-14T06:00:15;4.93;;;2.95;;
2177;SDS011;1095;50.992;6.798;2024-02-14T06:12:14;4.70;;;3.72;;
2177;SDS011;1095;50.992;6.798;2024-02-14T06:14:50;4.63;;;3.00;;
2177;SDS011;1095;50.992;6.798;2024-02-14T06:17:51;4.90;;;3.20;;
2177;SDS011;1095;50.992;6.798;2024-02-14T06:20:33;5.78;;;3.20;;
2177;SDS011;1095;50.992;6.798;2024-02-14T06:23:19;3.60;;;2.90;;
2177;SDS011;1095;50.992;6.798;2024-02-14T06:26:12;3.60;;;3.00;;
2177;SDS011;1095;50.992;6.798;2024-02-14T06:28:45;4.68;;;3.10;;
2177;SDS011;1095;50.992;6.798;2024-02-14T06:31:23;5.10;;;3.05;;
2177;SDS011;1095;50.992;6.798;2024-02-14T06:33:56;6.75;;;4.22;;
2177;SDS011;1095;50.992;6.798;2024-02-14T06:36:26;4.80;;;4.10;;
2177;SDS011;1095;50.992;6.798;2024-02-14T06:39:04;4.57;;;3.28;;
2177;SDS011;1095;50.992;6.798;2024-02-14T06:42:15;4.82;;;3.88;;
2177;SDS011;1095;50.992;6.798;2024-02-14T06:45:01;4.03;;;2.60;;
2177;SDS011;1095;50.992;6.798;2024-02-14T06:47:57;4.78;;;3.42;;
2177;SDS011;1095;50.992;6.798;2024-02-14T06:50:49;8.02;;;3.67;;
2177;SDS011;1095;50.992;6.798;2024-02-14T06:54:02;3.88;;;3.05;;
2177;SDS011;1095;50.992;6.798;2024-02-14T06:57:03;3.58;;;2.85;;
2177;SDS011;1095;50.992;6.798;2024-02-14T06:59:47;3.80;;;2.90;;
2177;SDS011;1095;50.992;6.798;2024-02-14T07:02:35;4.38;;;2.80;;
2177;SDS011;1095;50.992;6.798;2024-02-14T07:05:44;5.43;;;4.00;;
2177;SDS011;1095;50.992;6.798;2024-02-14T07:10:56;4.00;;;2.97;;
2177;SDS011;1095;50.992;6.798;2024-02-14T07:13:26;6.43;;;4.28;;
2177;SDS011;1095;50.992;6.798;2024-02-14T07:15:59;5.82;;;2.97;;
2177;SDS011;1095;50.992;6.798;2024-02-14T07:18:56;4.90;;;3.75;;
2177;SDS011;1095;50.992;6.798;2024-02-14T07:21:49;4.78;;;2.30;;
2177;SDS011;1095;50.992;6.798;2024-02-14T07:24:16;3.10;;;2.67;;
2177;SDS011;1095;50.992;6.798;2024-02-14T07:26:47;3.95;;;2.47;;
2177;SDS011;1095;50.992;6.798;2024-02-14T07:29:36;2.47;;;2.28;;
2177;SDS011;1095;50.992;6.798;2024-02-14T07:32:11;2.50;;;2.15;;
2177;SDS011;1095;50.992;6.798;2024-02-14T07:34:49;4.32;;;2.58;;
2177;SDS011;1095;50.992;6.798;2024-02-14T07:37:27;2.38;;;2.03;;
2177;SDS011;1095;50.992;6.798;2024-02-14T07:40:03;3.55;;;2.40;;
2177;SDS011;1095;50.992;6.798;2024-02-14T07:42:38;5.00;;;2.50;;
2177;SDS011;1095;50.992;6.798;2024-02-14T07:45:06;2.65;;;2.13;;
2177;SDS011;1095;50.992;6.798;2024-02-14T07:47:33;2.88;;;1.67;;
2177;SDS011;1095;50.992;6.798;2024-02-14T07:50:00;2.92;;;2.15;;
2177;SDS011;1095;50.992;6.798;2024-02-14T07:52:27;4.30;;;1.73;;
2177;SDS011;1095;50.992;6.798;2024-02-14T07:54:54;10.02;;;6.30;;
2177;SDS011;1095;50.992;6.798;2024-02-14T07:57:23;14.93;;;8.18;;
2177;SDS011;1095;50.992;6.798;2024-02-14T07:59:51;4.70;;;3.03;;
2177;SDS011;1095;50.992;6.798;2024-02-14T08:02:19;4.10;;;3.58;;
2177;SDS011;1095;50.992;6.798;2024-02-14T08:04:47;3.38;;;2.30;;
2177;SDS011;1095;50.992;6.798;2024-02-14T08:07:13;4.57;;;3.80;;
2177;SDS011;1095;50.992;6.798;2024-02-14T08:09:40;2.78;;;2.53;;
2177;SDS011;1095;50.992;6.798;2024-02-14T08:12:07;3.05;;;2.75;;
2177;SDS011;1095;50.992;6.798;2024-02-14T08:14:34;3.00;;;2.60;;
2177;SDS011;1095;50.992;6.798;2024-02-14T08:17:03;3.88;;;2.17;;
2177;SDS011;1095;50.992;6.798;2024-02-14T08:19:30;11.50;;;2.90;;
2177;SDS011;1095;50.992;6.798;2024-02-14T08:21:57;2.28;;;2.08;;
2177;SDS011;1095;50.992;6.798;2024-02-14T08:24:26;3.10;;;2.75;;
2177;SDS011;1095;50.992;6.798;2024-02-14T08:26:53;4.70;;;2.90;;
2177;SDS011;1095;50.992;6.798;2024-02-14T08:29:20;4.18;;;2.95;;
2177;SDS011;1095;50.992;6.798;2024-02-14T08:31:47;3.67;;;2.90;;
2177;SDS011;1095;50.992;6.798;2024-02-14T08:34:15;2.60;;;2.20;;
2177;SDS011;1095;50.992;6.798;2024-02-14T08:36:42;3.42;;;3.00;;
2177;SDS011;1095;50.992;6.798;2024-02-14T08:39:09;3.63;;;1.92;;
2177;SDS011;1095;50.992;6.798;2024-02-14T08:41:36;4.43;;;1.88;;
2177;SDS011;1095;50.992;6.798;2024-02-14T08:44:08;2.35;;;2.08;;
2177;SDS011;1095;50.992;6.798;2024-02-14T08:46:37;2.38;;;1.92;;
2177;SDS011;1095;50.992;6.798;2024-02-14T08:49:04;3.55;;;1.98;;
2177;SDS011;1095;50.992;6.798;2024-02-14T08:51:35;3.28;;;2.20;;
2177;SDS011;1095;50.992;6.798;2024-02-14T08:54:01;3.78;;;2.17;;
2177;SDS011;1095;50.992;6.798;2024-02-14T08:56:30;4.20;;;2.28;;
2177;SDS011;1095;50.992;6.798;2024-02-14T08:58:58;4.22;;;2.60;;
2177;SDS011;1095;50.992;6.798;2024-02-14T09:01:25;2.50;;;2.20;;
2177;SDS011;1095;50.992;6.798;2024-02-14T09:03:52;5.78;;;3.15;;
2177;SDS011;1095;50.992;6.798;2024-02-14T09:06:18;2.40;;;1.98;;
2177;SDS011;1095;50.992;6.798;2024-02-14T09:08:47;6.22;;;2.83;;
2177;SDS011;1095;50.992;6.798;2024-02-14T09:11:15;3.28;;;2.40;;
2177;SDS011;1095;50.992;6.798;2024-02-14T09:13:42;2.55;;;2.35;;
2177;SDS011;1095;50.992;6.798;2024-02-14T09:16:09;2.97;;;2.50;;
2177;SDS011;1095;50.992;6.798;2024-02-14T09:18:36;3.72;;;2.65;;
2177;SDS011;1095;50.992;6.798;2024-02-14T09:21:03;3.05;;;2.10;;
2177;SDS011;1095;50.992;6.798;2024-02-14T09:23:30;5.05;;;2.90;;
2177;SDS011;1095;50.992;6.798;2024-02-14T09:25:59;2.92;;;2.53;;
2177;SDS011;1095;50.992;6.798;2024-02-14T09:28:32;5.65;;;2.40;;
2177;SDS011;1095;50.992;6.798;2024-02-14T09:31:02;4.63;;;2.50;;
2177;SDS011;1095;50.992;6.798;2024-02-14T09:33:34;4.57;;;2.25;;
2177;SDS011;1095;50.992;6.798;2024-02-14T09:36:05;3.60;;;2.22;;
2177;SDS011;1095;50.992;6.798;2024-02-14T09:38:46;6.60;;;2.20;;
2177;SDS011;1095;50.992;6.798;2024-02-14T09:41:17;3.58;;;2.28;;
2177;SDS011;1095;50.992;6.798;2024-02-14T09:43:51;3.25;;;2.30;;
2177;SDS011;1095;50.992;6.798;2024-02-14T09:46:35;4.10;;;2.28;;
2177;SDS011;1095;50.992;6.798;2024-02-14T09:49:15;4.55;;;2.55;;
2177;SDS011;1095;50.992;6.798;2024-02-14T09:51:48;5.53;;;2.20;;
2177;SDS011;1095;50.992;6.798;2024-02-14T09:54:16;4.85;;;2.58;;
2177;SDS011;1095;50.992;6.798;2024-02-14T09:56:50;3.70;;;1.70;;
2177;SDS011;1095;50.992;6.798;2024-02-14T09:59:24;4.85;;;2.38;;
2177;SDS011;1095;50.992;6.798;2024-02-14T10:01:51;7.32;;;3.20;;
2177;SDS011;1095;50.992;6.798;2024-02-14T10:04:18;5.10;;;2.20;;
2177;SDS011;1095;50.992;6.798;2024-02-14T10:06:47;4.45;;;2.28;;
2177;SDS011;1095;50.992;6.798;2024-02-14T10:09:18;5.57;;;2.05;;
2177;SDS011;1095;50.992;6.798;2024-02-14T10:11:45;4.15;;;2.28;;
2177;SDS011;1095;50.992;6.798;2024-02-14T10:14:14;2.28;;;1.70;;
2177;SDS011;1095;50.992;6.798;2024-02-14T10:16:41;3.63;;;1.73;;
2177;SDS011;1095;50.992;6.798;2024-02-14T10:19:14;4.03;;;2.22;;
2177;SDS011;1095;50.992;6.798;2024-02-14T10:21:41;4.75;;;2.20;;
2177;SDS011;1095;50.992;6.798;2024-02-14T10:24:07;5.60;;;2.35;;
2177;SDS011;1095;50.992;6.798;2024-02-14T10:26:35;6.63;;;2.33;;
2177;SDS011;1095;50.992;6.798;2024-02-14T10:29:02;4.28;;;1.95;;
2177;SDS011;1095;50.992;6.798;2024-02-14T10:31:30;6.22;;;2.05;;
2177;SDS011;1095;50.992;6.798;2024-02-14T10:33:57;5.32;;;2.42;;
2177;SDS011;1095;50.992;6.798;2024-02-14T10:36:25;4.13;;;2.30;;
2177;SDS011;1095;50.992;6.798;2024-02-14T10:38:52;3.80;;;2.10;;
2177;SDS011;1095;50.992;6.798;2024-02-14T10:41:23;4.22;;;2.08;;
2177;SDS011;1095;50.992;6.798;2024-02-14T10:43:52;4.20;;;2.00;;
2177;SDS011;1095;50.992;6.798;2024-02-14T10:46:19;6.07;;;2.40;;
2177;SDS011;1095;50.992;6.798;2024-02-14T10:48:49;5.68;;;2.38;;
2177;SDS011;1095;50.992;6.798;2024-02-14T10:51:23;3.78;;;2.08;;
2177;SDS011;1095;50.992;6.798;2024-02-14T10:54:03;3.50;;;2.65;;
2177;SDS011;1095;50.992;6.798;2024-02-14T10:59:09;6.30;;;2.92;;
2177;SDS011;1095;50.992;6.798;2024-02-14T11:01:38;4.50;;;2.40;;
2177;SDS011;1095;50.992;6.798;2024-02-14T11:04:17;6.70;;;2.78;;
2177;SDS011;1095;50.992;6.798;2024-02-14T11:06:47;4.90;;;2.55;;
2177;SDS011;1095;50.992;6.798;2024-02-14T11:09:30;4.68;;;2.42;;
2177;SDS011;1095;50.992;6.798;2024-02-14T11:12:04;6.28;;;2.97;;
2177;SDS011;1095;50.992;6.798;2024-02-14T11:14:34;8.07;;;3.42;;
2177;SDS011;1095;50.992;6.798;2024-02-14T11:17:04;7.65;;;3.00;;
2177;SDS011;1095;50.992;6.798;2024-02-14T11:19:39;5.20;;;2.67;;
2177;SDS011;1095;50.992;6.798;2024-02-14T11:22:09;7.82;;;3.90;;
2177;SDS011;1095;50.992;6.798;2024-02-14T11:24:40;6.60;;;3.80;;
2177;SDS011;1095;50.992;6.798;2024-02-14T11:27:10;7.63;;;3.45;;
2177;SDS011;1095;50.992;6.798;2024-02-14T11:29:38;8.35;;;3.67;;
2177;SDS011;1095;50.992;6.798;2024-02-14T11:32:06;6.55;;;3.33;;
2177;SDS011;1095;50.992;6.798;2024-02-14T11:34:34;4.88;;;2.85;;
2177;SDS011;1095;50.992;6.798;2024-02-14T11:37:03;7.47;;;3.03;;
2177;SDS011;1095;50.992;6.798;2024-02-14T11:39:32;7.38;;;2.97;;
2177;SDS011;1095;50.992;6.798;2024-02-14T11:42:03;7.50;;;2.70;;
2177;SDS011;1095;50.992;6.798;2024-02-14T11:44:34;4.65;;;2.40;;
2177;SDS011;1095;50.992;6.798;2024-02-14T11:47:02;4.95;;;2.20;;
2177;SDS011;1095;50.992;6.798;2024-02-14T11:49:29;4.72;;;1.90;;
2177;SDS011;1095;50.992;6.798;2024-02-14T11:51:56;5.00;;;2.17;;
2177;SDS011;1095;50.992;6.798;2024-02-14T11:54:24;6.60;;;2.78;;
2177;SDS011;1095;50.992;6.798;2024-02-14T11:56:51;4.35;;;2.50;;
2177;SDS011;1095;50.992;6.798;2024-02-14T11:59:18;4.53;;;2.20;;
2177;SDS011;1095;50.992;6.798;2024-02-14T12:01:48;2.67;;;1.90;;
2177;SDS011;1095;50.992;6.798;2024-02-14T12:04:16;2.63;;;2.00;;
2177;SDS011;1095;50.992;6.798;2024-02-14T12:06:44;2.15;;;1.88;;
2177;SDS011;1095;50.992;6.798;2024-02-14T12:09:11;3.17;;;1.83;;
2177;SDS011;1095;50.992;6.798;2024-02-14T12:11:41;1.90;;;1.70;;
2177;SDS011;1095;50.992;6.798;2024-02-14T12:14:09;3.85;;;1.63;;
2177;SDS011;1095;50.992;6.798;2024-02-14T12:16:36;3.85;;;1.88;;
2177;SDS011;1095;50.992;6.798;2024-02-14T12:19:05;2.47;;;1.60;;
2177;SDS011;1095;50.992;6.798;2024-02-14T12:21:34;2.50;;;1.42;;
2177;SDS011;1095;50.992;6.798;2024-02-14T12:24:02;3.47;;;1.95;;
2177;SDS011;1095;50.992;6.798;2024-02-14T12:26:30;1.55;;;1.40;;
2177;SDS011;1095;50.992;6.798;2024-02-14T12:29:00;2.15;;;1.58;;
2177;SDS011;1095;50.992;6.798;2024-02-14T12:31:29;2.85;;;1.98;;
2177;SDS011;1095;50.992;6.798;2024-02-14T12:33:56;1.85;;;1.52;;
2177;SDS011;1095;50.992;6.798;2024-02-14T12:36:24;1.80;;;1.55;;
2177;SDS011;1095;50.992;6.798;2024-02-14T12:38:54;2.63;;;1.50;;
2177;SDS011;1095;50.992;6.798;2024-02-14T12:41:21;2.70;;;1.88;;
2177;SDS011;1095;50.992;6.798;2024-02-14T12:43:48;1.50;;;1.10;;
2177;SDS011;1095;50.992;6.798;2024-02-14T12:46:16;2.75;;;1.65;;
2177;SDS011;1095;50.992;6.798;2024-02-14T12:48:43;2.08;;;1.48;;
2177;SDS011;1095;50.992;6.798;2024-02-14T12:51:10;1.35;;;1.25;;
2177;SDS011;1095;50.992;6.798;2024-02-14T12:53:36;3.08;;;1.42;;
2177;SDS011;1095;50.992;6.798;2024-02-14T12:56:03;2.53;;;1.60;;
2177;SDS011;1095;50.992;6.798;2024-02-14T12:58:31;1.63;;;1.50;;
2177;SDS011;1095;50.992;6.798;2024-02-14T13:00:58;1.98;;;1.83;;
2177;SDS011;1095;50.992;6.798;2024-02-14T13:03:26;1.48;;;1.35;;
2177;SDS011;1095;50.992;6.798;2024-02-14T13:05:53;1.88;;;1.73;;
2177;SDS011;1095;50.992;6.798;2024-02-14T13:08:20;1.95;;;1.52;;
2177;SDS011;1095;50.992;6.798;2024-02-14T13:10:48;3.10;;;1.63;;
2177;SDS011;1095;50.992;6.798;2024-02-14T13:13:15;3.20;;;1.70;;
2177;SDS011;1095;50.992;6.798;2024-02-14T13:15:41;1.63;;;1.25;;
2177;SDS011;1095;50.992;6.798;2024-02-14T13:18:09;2.85;;;1.73;;
2177;SDS011;1095;50.992;6.798;2024-02-14T13:20:38;2.55;;;1.58;;
2177;SDS011;1095;50.992;6.798;2024-02-14T13:23:04;2.00;;;1.27;;
2177;SDS011;1095;50.992;6.798;2024-02-14T13:25:34;2.60;;;1.60;;
2177;SDS011;1095;50.992;6.798;2024-02-14T13:28:01;2.45;;;1.83;;
2177;SDS011;1095;50.992;6.798;2024-02-14T13:30:28;1.95;;;1.52;;
2177;SDS011;1095;50.992;6.798;2024-02-14T13:32:55;3.90;;;1.70;;
2177;SDS011;1095;50.992;6.798;2024-02-14T13:35:22;1.63;;;1.52;;
2177;SDS011;1095;50.992;6.798;2024-02-14T13:37:50;2.45;;;1.50;;
2177;SDS011;1095;50.992;6.798;2024-02-14T13:40:16;1.90;;;1.70;;
2177;SDS011;1095;50.992;6.798;2024-02-14T13:42:43;1.80;;;1.65;;
2177;SDS011;1095;50.992;6.798;2024-02-14T13:45:10;3.03;;;2.13;;
2177;SDS011;1095;50.992;6.798;2024-02-14T13:47:37;1.73;;;1.60;;
2177;SDS011;1095;50.992;6.798;2024-02-14T13:50:05;2.80;;;1.75;;
2177;SDS011;1095;50.992;6.798;2024-02-14T13:52:32;1.85;;;1.52;;
2177;SDS011;1095;50.992;6.798;2024-02-14T13:55:01;1.73;;;1.52;;
2177;SDS011;1095;50.992;6.798;2024-02-14T13:57:28;4.28;;;2.20;;
2177;SDS011;1095;50.992;6.798;2024-02-14T13:59:55;4.57;;;2.95;;
2177;SDS011;1095;50.992;6.798;2024-02-14T14:02:22;2.15;;;1.95;;
2177;SDS011;1095;50.992;6.798;2024-02-14T14:04:49;2.38;;;1.70;;
2177;SDS011;1095;50.992;6.798;2024-02-14T14:07:17;3.67;;;1.52;;
2177;SDS011;1095;50.992;6.798;2024-02-14T14:09:47;3.05;;;1.95;;
2177;SDS011;1095;50.992;6.798;2024-02-14T14:12:15;1.90;;;1.38;;
2177;SDS011;1095;50.992;6.798;2024-02-14T14:14:42;3.22;;;1.60;;
2177;SDS011;1095;50.992;6.798;2024-02-14T14:17:09;2.95;;;1.48;;
2177;SDS011;1095;50.992;6.798;2024-02-14T14:19:37;2.55;;;1.52;;
2177;SDS011;1095;50.992;6.798;2024-02-14T14:22:05;1.40;;;1.17;;
2177;SDS011;1095;50.992;6.798;2024-02-14T14:24:32;2.25;;;1.73;;
2177;SDS011;1095;50.992;6.798;2024-02-14T14:26:58;2.70;;;1.00;;
2177;SDS011;1095;50.992;6.798;2024-02-14T14:29:27;2.65;;;1.65;;
2177;SDS011;1095;50.992;6.798;2024-02-14T14:31:54;2.50;;;1.17;;
2177;SDS011;1095;50.992;6.798;2024-02-14T14:34:20;2.30;;;1.60;;
2177;SDS011;1095;50.992;6.798;2024-02-14T14:36:47;2.67;;;1.48;;
2177;SDS011;1095;50.992;6.798;2024-02-14T14:39:14;4.75;;;2.40;;
2177;SDS011;1095;50.992;6.798;2024-02-14T14:41:40;1.80;;;1.45;;
2177;SDS011;1095;50.992;6.798;2024-02-14T14:44:08;2.00;;;1.70;;
2177;SDS011;1095;50.992;6.798;2024-02-14T14:46:38;2.65;;;1.58;;
2177;SDS011;1095;50.992;6.798;2024-02-14T14:49:07;1.77;;;1.58;;
2177;SDS011;1095;50.992;6.798;2024-02-14T14:51:34;3.50;;;2.40;;
2177;SDS011;1095;50.992;6.798;2024-02-14T14:54:03;5.25;;;2.80;;
2177;SDS011;1095;50.992;6.798;2024-02-14T14:56:30;5.75;;;2.40;;
2177;SDS011;1095;50.992;6.798;2024-02-14T14:58:56;4.45;;;2.78;;
2177;SDS011;1095;50.992;6.798;2024-02-14T15:01:25;5.40;;;2.60;;
2177;SDS011;1095;50.992;6.798;2024-02-14T15:03:54;5.38;;;3.00;;
2177;SDS011;1095;50.992;6.798;2024-02-14T15:06:21;3.17;;;2.60;;
2177;SDS011;1095;50.992;6.798;2024-02-14T15:08:47;3.85;;;2.30;;
2177;SDS011;1095;50.992;6.798;2024-02-14T15:11:14;2.95;;;2.40;;
2177;SDS011;1095;50.992;6.798;2024-02-14T15:13:43;3.15;;;2.65;;
2177;SDS011;1095;50.992;6.798;2024-02-14T15:16:10;4.20;;;2.63;;
2177;SDS011;1095;50.992;6.798;2024-02-14T15:18:38;2.70;;;2.35;;
2177;SDS011;1095;50.992;6.798;2024-02-14T15:21:08;2.45;;;2.20;;
2177;SDS011;1095;50.992;6.798;2024-02-14T15:23:37;3.08;;;2.78;;
2177;SDS011;1095;50.992;6.798;2024-02-14T15:26:37;3.35;;;2.70;;
2177;SDS011;1095;50.992;6.798;2024-02-14T15:29:30;5.22;;;3.30;;
2177;SDS011;1095;50.992;6.798;2024-02-14T15:32:46;4.43;;;2.67;;
2177;SDS011;1095;50.992;6.798;2024-02-14T15:36:04;4.05;;;3.10;;
2177;SDS011;1095;50.992;6.798;2024-02-14T15:41:58;4.72;;;4.00;;
2177;SDS011;1095;50.992;6.798;2024-02-14T15:44:28;5.20;;;3.50;;
2177;SDS011;1095;50.992;6.798;2024-02-14T15:47:02;5.90;;;3.58;;
2177;SDS011;1095;50.992;6.798;2024-02-14T15:49:45;5.40;;;3.88;;
2177;SDS011;1095;50.992;6.798;2024-02-14T15:52:43;10.07;;;5.40;;
2177;SDS011;1095;50.992;6.798;2024-02-14T15:55:11;6.70;;;4.45;;
2177;SDS011;1095;50.992;6.798;2024-02-14T15:57:38;9.07;;;4.90;;
2177;SDS011;1095;50.992;6.798;2024-02-14T16:00:05;6.82;;;4.47;;
2177;SDS011;1095;50.992;6.798;2024-02-14T16:02:35;5.10;;;4.20;;
2177;SDS011;1095;50.992;6.798;2024-02-14T16:05:02;8.43;;;4.40;;
2177;SDS011;1095;50.992;6.798;2024-02-14T16:07:32;4.97;;;3.67;;
2177;SDS011;1095;50.992;6.798;2024-02-14T16:09:59;4.53;;;3.40;;
2177;SDS011;1095;50.992;6.798;2024-02-14T16:12:30;3.63;;;2.80;;
2177;SDS011;1095;50.992;6.798;2024-02-14T16:14:57;4.88;;;2.70;;
2177;SDS011;1095;50.992;6.798;2024-02-14T16:17:24;3.88;;;2.47;;
2177;SDS011;1095;50.992;6.798;2024-02-14T16:19:51;3.20;;;2.80;;
2177;SDS011;1095;50.992;6.798;2024-02-14T16:22:18;3.75;;;2.28;;